Abaiwala, Pakistan

54°F / 12°C
Smoke
Humidity: 94%
Dew Point: 52°F / 11°C
Wind: North at 7 mph / 11 km/h
Pressure: 30.04 in / 1017 hPa (Steady)
Visibility: 2.5 miles / 4.0 kilometers
Clouds: (FEW) : 2000 ft / 609 m
Scattered Clouds (SCT) : 4000 ft / 1219 m
Overcast (OVC) : 10000 ft / 3048 m
Yesterday's Maximum: 68°F / 20°C
Yesterday's Minimum: 54°F / 12°C approx.
Yesterday's Heating Degree Days: 4 approx.
UV: 0 out of 16
Sunrise:6:50 AM PKT
Sunset:6:07 PM PKT
Moon Rise:8:11 PM PKT
Moon Set:8:08 AM PKT
Moon Phase Full Moon
NOAA Weather Radio
No local feed.
METAR OPMT 201930Z 36006KT 4000 FU FEW020 SCT040 OVC100 12/11 Q1017 TEMPO 36025KT 2000 TSRA FEW030CB
As of: 12:30 AM PKT on February 21, 2019
Observed at: Multan, Pakistan

View Station's History

Local Satellite

Current Satellite Forecast
Region Default Local
No Yes

View Full Screen WunderMap

Forecast

Current Satellite Forecast

Features

Weather Apps

WunderRadio

Weather Underground Apps
Check out our wide variety of mobile and setup applications.

Weather Underground Applications

Top of Page

© Copyright 2019
The Weather Company, LLC